sensor_id;sensor_type;location;lat;lon;timestamp;P1;durP1;ratioP1;P2;durP2;ratioP2
42414;SDS011;28058;46.344;17.786;2023-06-22T00:01:09;15.85;;;14.35;;
42414;SDS011;28058;46.344;17.786;2023-06-22T00:04:35;16.25;;;14.65;;
42414;SDS011;28058;46.344;17.786;2023-06-22T00:08:03;15.80;;;14.05;;
42414;SDS011;28058;46.344;17.786;2023-06-22T00:11:29;16.60;;;14.48;;
42414;SDS011;28058;46.344;17.786;2023-06-22T00:14:55;16.08;;;14.38;;
42414;SDS011;28058;46.344;17.786;2023-06-22T00:18:20;18.08;;;15.13;;
42414;SDS011;28058;46.344;17.786;2023-06-22T00:21:48;17.42;;;14.70;;
42414;SDS011;28058;46.344;17.786;2023-06-22T00:25:14;19.38;;;15.52;;
42414;SDS011;28058;46.344;17.786;2023-06-22T00:28:40;16.80;;;15.05;;
42414;SDS011;28058;46.344;17.786;2023-06-22T00:32:06;18.15;;;14.40;;
42414;SDS011;28058;46.344;17.786;2023-06-22T00:35:34;17.23;;;15.05;;
42414;SDS011;28058;46.344;17.786;2023-06-22T00:39:00;19.00;;;16.10;;
42414;SDS011;28058;46.344;17.786;2023-06-22T00:42:25;18.40;;;16.60;;
42414;SDS011;28058;46.344;17.786;2023-06-22T00:45:51;22.95;;;17.00;;
42414;SDS011;28058;46.344;17.786;2023-06-22T00:49:16;19.60;;;17.52;;
42414;SDS011;28058;46.344;17.786;2023-06-22T00:52:45;20.30;;;17.77;;
42414;SDS011;28058;46.344;17.786;2023-06-22T00:56:10;22.15;;;18.65;;
42414;SDS011;28058;46.344;17.786;2023-06-22T00:59:38;25.30;;;19.23;;
42414;SDS011;28058;46.344;17.786;2023-06-22T01:03:04;25.27;;;20.58;;
42414;SDS011;28058;46.344;17.786;2023-06-22T01:06:32;23.63;;;18.73;;
42414;SDS011;28058;46.344;17.786;2023-06-22T01:10:57;21.23;;;19.02;;
42414;SDS011;28058;46.344;17.786;2023-06-22T01:14:06;21.73;;;19.43;;
42414;SDS011;28058;46.344;17.786;2023-06-22T01:17:37;24.73;;;20.05;;
42414;SDS011;28058;46.344;17.786;2023-06-22T01:21:07;27.13;;;21.02;;
42414;SDS011;28058;46.344;17.786;2023-06-22T01:24:48;26.58;;;21.27;;
42414;SDS011;28058;46.344;17.786;2023-06-22T01:28:48;27.42;;;20.88;;
42414;SDS011;28058;46.344;17.786;2023-06-22T01:32:17;22.73;;;20.27;;
42414;SDS011;28058;46.344;17.786;2023-06-22T01:35:43;23.55;;;19.45;;
42414;SDS011;28058;46.344;17.786;2023-06-22T01:39:10;22.55;;;19.58;;
42414;SDS011;28058;46.344;17.786;2023-06-22T01:42:37;20.75;;;18.38;;
42414;SDS011;28058;46.344;17.786;2023-06-22T01:46:03;26.85;;;19.48;;
42414;SDS011;28058;46.344;17.786;2023-06-22T01:49:29;22.52;;;19.95;;
42414;SDS011;28058;46.344;17.786;2023-06-22T01:52:56;25.90;;;19.65;;
42414;SDS011;28058;46.344;17.786;2023-06-22T01:56:21;21.77;;;19.48;;
42414;SDS011;28058;46.344;17.786;2023-06-22T01:59:57;22.13;;;19.80;;
42414;SDS011;28058;46.344;17.786;2023-06-22T02:03:50;23.27;;;19.27;;
42414;SDS011;28058;46.344;17.786;2023-06-22T02:07:21;24.63;;;19.08;;
42414;SDS011;28058;46.344;17.786;2023-06-22T02:11:07;23.00;;;19.20;;
42414;SDS011;28058;46.344;17.786;2023-06-22T02:14:34;24.73;;;20.23;;
42414;SDS011;28058;46.344;17.786;2023-06-22T02:18:01;22.73;;;19.10;;
42414;SDS011;28058;46.344;17.786;2023-06-22T02:21:29;21.80;;;19.50;;
42414;SDS011;28058;46.344;17.786;2023-06-22T02:24:55;22.08;;;19.60;;
42414;SDS011;28058;46.344;17.786;2023-06-22T02:28:21;22.90;;;19.65;;
42414;SDS011;28058;46.344;17.786;2023-06-22T02:31:47;26.02;;;20.58;;
42414;SDS011;28058;46.344;17.786;2023-06-22T02:35:12;24.73;;;21.20;;
42414;SDS011;28058;46.344;17.786;2023-06-22T02:38:42;23.55;;;20.48;;
42414;SDS011;28058;46.344;17.786;2023-06-22T02:42:08;24.15;;;18.92;;
42414;SDS011;28058;46.344;17.786;2023-06-22T02:45:33;27.73;;;20.35;;
42414;SDS011;28058;46.344;17.786;2023-06-22T02:48:58;23.27;;;19.80;;
42414;SDS011;28058;46.344;17.786;2023-06-22T02:52:24;22.55;;;19.52;;
42414;SDS011;28058;46.344;17.786;2023-06-22T02:55:49;22.30;;;18.85;;
42414;SDS011;28058;46.344;17.786;2023-06-22T02:59:15;25.13;;;18.95;;
42414;SDS011;28058;46.344;17.786;2023-06-22T03:02:44;20.15;;;18.00;;
42414;SDS011;28058;46.344;17.786;2023-06-22T03:06:10;25.10;;;18.65;;
42414;SDS011;28058;46.344;17.786;2023-06-22T03:09:35;21.08;;;18.98;;
42414;SDS011;28058;46.344;17.786;2023-06-22T03:13:01;22.58;;;17.73;;
42414;SDS011;28058;46.344;17.786;2023-06-22T03:16:27;19.05;;;17.05;;
42414;SDS011;28058;46.344;17.786;2023-06-22T03:19:53;23.45;;;19.23;;
42414;SDS011;28058;46.344;17.786;2023-06-22T03:23:18;20.42;;;18.17;;
42414;SDS011;28058;46.344;17.786;2023-06-22T03:26:43;23.10;;;18.75;;
42414;SDS011;28058;46.344;17.786;2023-06-22T03:30:11;20.08;;;18.05;;
42414;SDS011;28058;46.344;17.786;2023-06-22T03:33:36;20.75;;;18.65;;
42414;SDS011;28058;46.344;17.786;2023-06-22T03:37:05;23.05;;;18.55;;
42414;SDS011;28058;46.344;17.786;2023-06-22T03:40:31;21.35;;;19.00;;
42414;SDS011;28058;46.344;17.786;2023-06-22T03:43:56;19.67;;;17.48;;
42414;SDS011;28058;46.344;17.786;2023-06-22T03:47:22;20.80;;;17.70;;
42414;SDS011;28058;46.344;17.786;2023-06-22T03:50:47;19.60;;;17.50;;
42414;SDS011;28058;46.344;17.786;2023-06-22T03:54:13;19.98;;;17.95;;
42414;SDS011;28058;46.344;17.786;2023-06-22T03:57:38;21.38;;;17.73;;
42414;SDS011;28058;46.344;17.786;2023-06-22T04:01:09;20.40;;;18.23;;
42414;SDS011;28058;46.344;17.786;2023-06-22T04:04:35;21.58;;;19.38;;
42414;SDS011;28058;46.344;17.786;2023-06-22T04:08:00;25.45;;;19.63;;
42414;SDS011;28058;46.344;17.786;2023-06-22T04:11:27;20.63;;;18.38;;
42414;SDS011;28058;46.344;17.786;2023-06-22T04:14:52;22.20;;;19.67;;
42414;SDS011;28058;46.344;17.786;2023-06-22T04:18:18;18.15;;;16.33;;
42414;SDS011;28058;46.344;17.786;2023-06-22T04:21:44;21.17;;;15.75;;
42414;SDS011;28058;46.344;17.786;2023-06-22T04:25:09;17.65;;;15.82;;
42414;SDS011;28058;46.344;17.786;2023-06-22T04:28:37;22.52;;;17.63;;
42414;SDS011;28058;46.344;17.786;2023-06-22T04:32:02;19.95;;;17.02;;
42414;SDS011;28058;46.344;17.786;2023-06-22T04:35:28;19.48;;;16.40;;
42414;SDS011;28058;46.344;17.786;2023-06-22T04:38:57;18.73;;;16.73;;
42414;SDS011;28058;46.344;17.786;2023-06-22T04:42:22;18.52;;;15.82;;
42414;SDS011;28058;46.344;17.786;2023-06-22T04:45:48;19.58;;;15.55;;
42414;SDS011;28058;46.344;17.786;2023-06-22T04:49:20;20.60;;;15.38;;
42414;SDS011;28058;46.344;17.786;2023-06-22T04:52:47;19.45;;;17.10;;
42414;SDS011;28058;46.344;17.786;2023-06-22T04:56:13;19.17;;;17.13;;
42414;SDS011;28058;46.344;17.786;2023-06-22T04:59:38;19.23;;;17.13;;
42414;SDS011;28058;46.344;17.786;2023-06-22T05:03:05;18.67;;;16.77;;
42414;SDS011;28058;46.344;17.786;2023-06-22T05:06:33;22.35;;;15.90;;
42414;SDS011;28058;46.344;17.786;2023-06-22T05:10:03;22.17;;;16.73;;
42414;SDS011;28058;46.344;17.786;2023-06-22T05:13:31;21.23;;;17.10;;
42414;SDS011;28058;46.344;17.786;2023-06-22T05:16:57;20.73;;;15.90;;
42414;SDS011;28058;46.344;17.786;2023-06-22T05:20:22;20.75;;;17.05;;
42414;SDS011;28058;46.344;17.786;2023-06-22T05:23:50;21.80;;;19.63;;
42414;SDS011;28058;46.344;17.786;2023-06-22T05:27:15;21.55;;;19.33;;
42414;SDS011;28058;46.344;17.786;2023-06-22T05:30:41;21.42;;;17.98;;
42414;SDS011;28058;46.344;17.786;2023-06-22T05:34:07;22.00;;;19.90;;
42414;SDS011;28058;46.344;17.786;2023-06-22T05:37:33;21.60;;;19.20;;
42414;SDS011;28058;46.344;17.786;2023-06-22T05:40:58;20.98;;;18.77;;
42414;SDS011;28058;46.344;17.786;2023-06-22T05:44:24;20.60;;;18.48;;
42414;SDS011;28058;46.344;17.786;2023-06-22T05:47:49;24.13;;;18.08;;
42414;SDS011;28058;46.344;17.786;2023-06-22T05:51:15;19.10;;;17.20;;
42414;SDS011;28058;46.344;17.786;2023-06-22T05:54:40;20.85;;;17.67;;
42414;SDS011;28058;46.344;17.786;2023-06-22T05:58:06;21.02;;;18.85;;
42414;SDS011;28058;46.344;17.786;2023-06-22T06:01:31;22.13;;;17.35;;
42414;SDS011;28058;46.344;17.786;2023-06-22T06:04:57;20.13;;;16.65;;
42414;SDS011;28058;46.344;17.786;2023-06-22T06:08:22;19.85;;;17.85;;
42414;SDS011;28058;46.344;17.786;2023-06-22T06:11:48;20.30;;;15.25;;
42414;SDS011;28058;46.344;17.786;2023-06-22T06:15:13;17.30;;;15.50;;
42414;SDS011;28058;46.344;17.786;2023-06-22T06:18:39;16.92;;;13.63;;
42414;SDS011;28058;46.344;17.786;2023-06-22T06:22:04;14.63;;;13.18;;
42414;SDS011;28058;46.344;17.786;2023-06-22T06:25:30;17.63;;;13.50;;
42414;SDS011;28058;46.344;17.786;2023-06-22T06:28:56;14.60;;;12.68;;
42414;SDS011;28058;46.344;17.786;2023-06-22T06:32:22;14.43;;;13.00;;
42414;SDS011;28058;46.344;17.786;2023-06-22T06:35:51;16.98;;;12.82;;
42414;SDS011;28058;46.344;17.786;2023-06-22T06:39:16;14.20;;;11.82;;
42414;SDS011;28058;46.344;17.786;2023-06-22T06:42:47;14.73;;;12.13;;
42414;SDS011;28058;46.344;17.786;2023-06-22T06:46:13;15.68;;;11.50;;
42414;SDS011;28058;46.344;17.786;2023-06-22T06:49:38;12.85;;;10.60;;
42414;SDS011;28058;46.344;17.786;2023-06-22T06:53:04;13.63;;;11.65;;
42414;SDS011;28058;46.344;17.786;2023-06-22T06:56:30;14.55;;;11.75;;
42414;SDS011;28058;46.344;17.786;2023-06-22T06:59:55;12.35;;;11.05;;
42414;SDS011;28058;46.344;17.786;2023-06-22T07:03:21;17.38;;;12.55;;
42414;SDS011;28058;46.344;17.786;2023-06-22T07:06:47;12.48;;;11.32;;
42414;SDS011;28058;46.344;17.786;2023-06-22T07:10:12;15.70;;;11.95;;
42414;SDS011;28058;46.344;17.786;2023-06-22T07:13:38;16.08;;;11.25;;
42414;SDS011;28058;46.344;17.786;2023-06-22T07:17:03;13.07;;;10.80;;
42414;SDS011;28058;46.344;17.786;2023-06-22T07:20:29;16.20;;;11.82;;
42414;SDS011;28058;46.344;17.786;2023-06-22T07:23:54;14.43;;;11.35;;
42414;SDS011;28058;46.344;17.786;2023-06-22T07:27:20;13.50;;;11.73;;
42414;SDS011;28058;46.344;17.786;2023-06-22T07:30:46;11.85;;;10.73;;
42414;SDS011;28058;46.344;17.786;2023-06-22T07:34:11;12.60;;;11.40;;
42414;SDS011;28058;46.344;17.786;2023-06-22T07:37:37;13.10;;;11.05;;
42414;SDS011;28058;46.344;17.786;2023-06-22T07:41:03;13.93;;;10.77;;
42414;SDS011;28058;46.344;17.786;2023-06-22T07:44:28;12.38;;;10.40;;
42414;SDS011;28058;46.344;17.786;2023-06-22T07:47:54;13.52;;;11.10;;
42414;SDS011;28058;46.344;17.786;2023-06-22T07:51:22;15.90;;;9.70;;
42414;SDS011;28058;46.344;17.786;2023-06-22T07:54:47;13.13;;;10.93;;
42414;SDS011;28058;46.344;17.786;2023-06-22T07:58:15;11.60;;;10.25;;
42414;SDS011;28058;46.344;17.786;2023-06-22T08:01:40;12.60;;;9.90;;
42414;SDS011;28058;46.344;17.786;2023-06-22T08:05:08;11.20;;;9.48;;
42414;SDS011;28058;46.344;17.786;2023-06-22T08:08:36;12.88;;;10.05;;
42414;SDS011;28058;46.344;17.786;2023-06-22T08:12:02;12.73;;;9.80;;
42414;SDS011;28058;46.344;17.786;2023-06-22T08:15:27;15.70;;;9.52;;
42414;SDS011;28058;46.344;17.786;2023-06-22T08:18:53;37.03;;;11.52;;
42414;SDS011;28058;46.344;17.786;2023-06-22T08:22:18;11.95;;;10.18;;
42414;SDS011;28058;46.344;17.786;2023-06-22T08:25:44;11.30;;;9.73;;
42414;SDS011;28058;46.344;17.786;2023-06-22T08:29:09;10.45;;;9.05;;
42414;SDS011;28058;46.344;17.786;2023-06-22T08:32:37;20.83;;;10.95;;
42414;SDS011;28058;46.344;17.786;2023-06-22T08:36:14;11.43;;;9.63;;
42414;SDS011;28058;46.344;17.786;2023-06-22T08:39:39;13.15;;;10.35;;
42414;SDS011;28058;46.344;17.786;2023-06-22T08:43:05;10.45;;;9.45;;
42414;SDS011;28058;46.344;17.786;2023-06-22T08:46:31;10.65;;;8.93;;
42414;SDS011;28058;46.344;17.786;2023-06-22T08:49:56;10.27;;;9.27;;
42414;SDS011;28058;46.344;17.786;2023-06-22T08:53:22;12.98;;;9.70;;
42414;SDS011;28058;46.344;17.786;2023-06-22T08:56:48;10.68;;;9.57;;
42414;SDS011;28058;46.344;17.786;2023-06-22T09:00:13;15.27;;;10.15;;
42414;SDS011;28058;46.344;17.786;2023-06-22T09:03:42;10.30;;;9.07;;
42414;SDS011;28058;46.344;17.786;2023-06-22T09:07:08;9.80;;;8.77;;
42414;SDS011;28058;46.344;17.786;2023-06-22T09:10:33;11.65;;;9.68;;
42414;SDS011;28058;46.344;17.786;2023-06-22T09:13:59;11.90;;;10.48;;
42414;SDS011;28058;46.344;17.786;2023-06-22T09:17:26;12.32;;;9.80;;
42414;SDS011;28058;46.344;17.786;2023-06-22T09:20:52;11.95;;;9.82;;
42414;SDS011;28058;46.344;17.786;2023-06-22T09:24:17;12.43;;;10.23;;
42414;SDS011;28058;46.344;17.786;2023-06-22T09:27:43;11.15;;;10.05;;
42414;SDS011;28058;46.344;17.786;2023-06-22T09:31:08;11.55;;;10.10;;
42414;SDS011;28058;46.344;17.786;2023-06-22T09:34:34;11.38;;;10.23;;
42414;SDS011;28058;46.344;17.786;2023-06-22T09:37:59;12.15;;;10.93;;
42414;SDS011;28058;46.344;17.786;2023-06-22T09:41:25;11.18;;;10.00;;
42414;SDS011;28058;46.344;17.786;2023-06-22T09:44:50;10.68;;;9.60;;
42414;SDS011;28058;46.344;17.786;2023-06-22T09:48:16;11.43;;;9.70;;
42414;SDS011;28058;46.344;17.786;2023-06-22T09:51:41;12.40;;;9.70;;
42414;SDS011;28058;46.344;17.786;2023-06-22T09:55:14;13.95;;;8.95;;
42414;SDS011;28058;46.344;17.786;2023-06-22T09:58:41;10.13;;;8.00;;
42414;SDS011;28058;46.344;17.786;2023-06-22T10:02:07;11.13;;;8.93;;
42414;SDS011;28058;46.344;17.786;2023-06-22T10:05:34;13.95;;;10.25;;
42414;SDS011;28058;46.344;17.786;2023-06-22T13:18:08;10.90;;;9.50;;
42414;SDS011;28058;46.344;17.786;2023-06-22T13:21:36;12.60;;;9.60;;
42414;SDS011;28058;46.344;17.786;2023-06-22T13:25:07;15.30;;;8.90;;
42414;SDS011;28058;46.344;17.786;2023-06-22T13:28:33;12.60;;;9.02;;
42414;SDS011;28058;46.344;17.786;2023-06-22T13:31:59;11.85;;;9.15;;
42414;SDS011;28058;46.344;17.786;2023-06-22T13:35:24;12.85;;;9.25;;
42414;SDS011;28058;46.344;17.786;2023-06-22T13:38:50;11.70;;;8.68;;
42414;SDS011;28058;46.344;17.786;2023-06-22T13:42:15;12.10;;;8.88;;
42414;SDS011;28058;46.344;17.786;2023-06-22T13:45:42;14.70;;;9.07;;
42414;SDS011;28058;46.344;17.786;2023-06-22T13:49:08;13.93;;;9.77;;
42414;SDS011;28058;46.344;17.786;2023-06-22T13:52:34;16.30;;;8.60;;
42414;SDS011;28058;46.344;17.786;2023-06-22T13:55:59;14.60;;;9.20;;
42414;SDS011;28058;46.344;17.786;2023-06-22T13:59:25;10.50;;;9.27;;
42414;SDS011;28058;46.344;17.786;2023-06-22T14:02:50;15.77;;;9.20;;
42414;SDS011;28058;46.344;17.786;2023-06-22T14:06:16;13.15;;;8.20;;
42414;SDS011;28058;46.344;17.786;2023-06-22T14:09:41;15.70;;;8.73;;
42414;SDS011;28058;46.344;17.786;2023-06-22T14:13:10;13.82;;;8.70;;
42414;SDS011;28058;46.344;17.786;2023-06-22T14:16:35;12.27;;;8.80;;
42414;SDS011;28058;46.344;17.786;2023-06-22T14:20:00;9.35;;;8.32;;
42414;SDS011;28058;46.344;17.786;2023-06-22T14:23:26;13.52;;;9.00;;
42414;SDS011;28058;46.344;17.786;2023-06-22T14:26:55;13.68;;;9.10;;
42414;SDS011;28058;46.344;17.786;2023-06-22T14:30:20;14.68;;;8.52;;
42414;SDS011;28058;46.344;17.786;2023-06-22T14:33:46;13.35;;;9.55;;
42414;SDS011;28058;46.344;17.786;2023-06-22T14:37:12;11.40;;;9.27;;
42414;SDS011;28058;46.344;17.786;2023-06-22T14:40:37;19.65;;;9.82;;
42414;SDS011;28058;46.344;17.786;2023-06-22T14:44:03;17.33;;;9.32;;
42414;SDS011;28058;46.344;17.786;2023-06-22T14:47:28;12.55;;;9.20;;
42414;SDS011;28058;46.344;17.786;2023-06-22T14:50:55;13.73;;;8.75;;
42414;SDS011;28058;46.344;17.786;2023-06-22T14:54:20;13.15;;;9.85;;
42414;SDS011;28058;46.344;17.786;2023-06-22T14:57:45;11.27;;;9.20;;
42414;SDS011;28058;46.344;17.786;2023-06-22T15:01:12;12.45;;;9.32;;
42414;SDS011;28058;46.344;17.786;2023-06-22T15:04:38;11.68;;;9.15;;
42414;SDS011;28058;46.344;17.786;2023-06-22T15:08:03;14.35;;;9.13;;
42414;SDS011;28058;46.344;17.786;2023-06-22T15:11:29;12.10;;;9.05;;
42414;SDS011;28058;46.344;17.786;2023-06-22T15:14:54;12.52;;;9.70;;
42414;SDS011;28058;46.344;17.786;2023-06-22T15:18:20;13.88;;;9.52;;
42414;SDS011;28058;46.344;17.786;2023-06-22T15:21:45;13.35;;;9.82;;
42414;SDS011;28058;46.344;17.786;2023-06-22T15:25:11;11.90;;;8.77;;
42414;SDS011;28058;46.344;17.786;2023-06-22T15:28:36;11.05;;;9.38;;
42414;SDS011;28058;46.344;17.786;2023-06-22T15:32:02;15.50;;;8.65;;
42414;SDS011;28058;46.344;17.786;2023-06-22T15:35:28;12.07;;;9.02;;
42414;SDS011;28058;46.344;17.786;2023-06-22T15:38:53;14.30;;;8.68;;
42414;SDS011;28058;46.344;17.786;2023-06-22T15:42:19;15.57;;;10.02;;
42414;SDS011;28058;46.344;17.786;2023-06-22T15:45:46;14.70;;;9.48;;
42414;SDS011;28058;46.344;17.786;2023-06-22T15:49:12;13.27;;;9.00;;
42414;SDS011;28058;46.344;17.786;2023-06-22T15:52:38;13.52;;;9.13;;
42414;SDS011;28058;46.344;17.786;2023-06-22T15:56:04;14.63;;;9.38;;
42414;SDS011;28058;46.344;17.786;2023-06-22T15:59:29;13.13;;;8.60;;
42414;SDS011;28058;46.344;17.786;2023-06-22T16:02:55;14.35;;;9.55;;
42414;SDS011;28058;46.344;17.786;2023-06-22T16:06:20;12.30;;;9.35;;
42414;SDS011;28058;46.344;17.786;2023-06-22T16:09:46;15.15;;;8.98;;
42414;SDS011;28058;46.344;17.786;2023-06-22T16:13:11;17.35;;;9.30;;
42414;SDS011;28058;46.344;17.786;2023-06-22T16:16:37;14.27;;;9.27;;
42414;SDS011;28058;46.344;17.786;2023-06-22T16:20:05;14.75;;;9.68;;
42414;SDS011;28058;46.344;17.786;2023-06-22T16:23:31;12.45;;;10.10;;
42414;SDS011;28058;46.344;17.786;2023-06-22T16:26:56;19.73;;;10.63;;
42414;SDS011;28058;46.344;17.786;2023-06-22T16:30:22;13.25;;;10.05;;
42414;SDS011;28058;46.344;17.786;2023-06-22T16:33:47;12.10;;;9.10;;
42414;SDS011;28058;46.344;17.786;2023-06-22T16:37:13;26.83;;;10.73;;
42414;SDS011;28058;46.344;17.786;2023-06-22T16:40:39;14.45;;;9.73;;
42414;SDS011;28058;46.344;17.786;2023-06-22T16:44:04;18.48;;;10.45;;
42414;SDS011;28058;46.344;17.786;2023-06-22T16:47:30;17.15;;;9.35;;
42414;SDS011;28058;46.344;17.786;2023-06-22T16:50:56;16.98;;;9.70;;
42414;SDS011;28058;46.344;17.786;2023-06-22T16:54:21;15.90;;;9.88;;
42414;SDS011;28058;46.344;17.786;2023-06-22T16:57:49;15.65;;;10.20;;
42414;SDS011;28058;46.344;17.786;2023-06-22T17:01:20;17.52;;;9.60;;
42414;SDS011;28058;46.344;17.786;2023-06-22T17:04:46;15.43;;;10.18;;
42414;SDS011;28058;46.344;17.786;2023-06-22T17:08:12;16.42;;;9.98;;
42414;SDS011;28058;46.344;17.786;2023-06-22T17:11:41;14.95;;;9.48;;
42414;SDS011;28058;46.344;17.786;2023-06-22T17:15:08;14.23;;;10.13;;
42414;SDS011;28058;46.344;17.786;2023-06-22T17:18:36;14.80;;;9.55;;
42414;SDS011;28058;46.344;17.786;2023-06-22T17:22:02;14.35;;;10.15;;
42414;SDS011;28058;46.344;17.786;2023-06-22T17:25:28;15.30;;;10.23;;
42414;SDS011;28058;46.344;17.786;2023-06-22T17:28:54;16.25;;;10.02;;
42414;SDS011;28058;46.344;17.786;2023-06-22T17:32:30;15.73;;;10.80;;
42414;SDS011;28058;46.344;17.786;2023-06-22T17:35:55;17.73;;;9.82;;
42414;SDS011;28058;46.344;17.786;2023-06-22T17:39:22;17.55;;;10.77;;
42414;SDS011;28058;46.344;17.786;2023-06-22T17:42:49;20.83;;;10.75;;
42414;SDS011;28058;46.344;17.786;2023-06-22T17:46:15;15.38;;;9.88;;
42414;SDS011;28058;46.344;17.786;2023-06-22T17:49:49;17.65;;;9.95;;
42414;SDS011;28058;46.344;17.786;2023-06-22T17:53:15;13.48;;;10.70;;
42414;SDS011;28058;46.344;17.786;2023-06-22T17:56:40;16.50;;;10.32;;
42414;SDS011;28058;46.344;17.786;2023-06-22T18:00:07;13.85;;;9.93;;
42414;SDS011;28058;46.344;17.786;2023-06-22T18:03:35;17.98;;;11.32;;
42414;SDS011;28058;46.344;17.786;2023-06-22T18:07:01;18.13;;;11.23;;
42414;SDS011;28058;46.344;17.786;2023-06-22T18:10:29;17.05;;;11.02;;
42414;SDS011;28058;46.344;17.786;2023-06-22T18:14:02;11.85;;;10.13;;
42414;SDS011;28058;46.344;17.786;2023-06-22T18:17:28;14.25;;;11.02;;
42414;SDS011;28058;46.344;17.786;2023-06-22T18:20:56;16.48;;;11.38;;
42414;SDS011;28058;46.344;17.786;2023-06-22T18:24:22;17.83;;;10.65;;
42414;SDS011;28058;46.344;17.786;2023-06-22T18:27:48;19.15;;;10.80;;
42414;SDS011;28058;46.344;17.786;2023-06-22T18:31:14;13.65;;;10.38;;
42414;SDS011;28058;46.344;17.786;2023-06-22T18:34:40;17.88;;;9.73;;
42414;SDS011;28058;46.344;17.786;2023-06-22T18:38:06;17.00;;;10.32;;
42414;SDS011;28058;46.344;17.786;2023-06-22T18:45:01;12.60;;;10.15;;
42414;SDS011;28058;46.344;17.786;2023-06-22T18:48:50;15.05;;;10.40;;
42414;SDS011;28058;46.344;17.786;2023-06-22T18:52:16;15.18;;;10.77;;
42414;SDS011;28058;46.344;17.786;2023-06-22T18:56:09;14.02;;;10.85;;
42414;SDS011;28058;46.344;17.786;2023-06-22T18:59:47;16.52;;;11.15;;
42414;SDS011;28058;46.344;17.786;2023-06-22T19:03:22;15.38;;;10.88;;
42414;SDS011;28058;46.344;17.786;2023-06-22T19:10:25;16.88;;;10.40;;
42414;SDS011;28058;46.344;17.786;2023-06-22T19:13:53;14.13;;;10.02;;
42414;SDS011;28058;46.344;17.786;2023-06-22T19:17:33;16.33;;;10.60;;
42414;SDS011;28058;46.344;17.786;2023-06-22T19:21:07;15.02;;;10.40;;
42414;SDS011;28058;46.344;17.786;2023-06-22T19:24:48;16.85;;;10.95;;
42414;SDS011;28058;46.344;17.786;2023-06-22T19:28:14;18.13;;;10.25;;
42414;SDS011;28058;46.344;17.786;2023-06-22T19:31:42;14.95;;;10.88;;
42414;SDS011;28058;46.344;17.786;2023-06-22T19:35:08;14.70;;;9.98;;
42414;SDS011;28058;46.344;17.786;2023-06-22T19:38:33;14.73;;;9.52;;
42414;SDS011;28058;46.344;17.786;2023-06-22T19:42:05;17.45;;;10.27;;
42414;SDS011;28058;46.344;17.786;2023-06-22T19:45:35;14.63;;;9.30;;
42414;SDS011;28058;46.344;17.786;2023-06-22T19:49:03;15.43;;;10.30;;
42414;SDS011;28058;46.344;17.786;2023-06-22T19:52:33;17.77;;;10.55;;
42414;SDS011;28058;46.344;17.786;2023-06-22T19:55:59;18.58;;;9.75;;
42414;SDS011;28058;46.344;17.786;2023-06-22T19:59:28;14.75;;;9.32;;
42414;SDS011;28058;46.344;17.786;2023-06-22T20:02:54;18.33;;;9.98;;
42414;SDS011;28058;46.344;17.786;2023-06-22T20:06:21;17.17;;;10.48;;
42414;SDS011;28058;46.344;17.786;2023-06-22T20:10:04;14.93;;;10.32;;
42414;SDS011;28058;46.344;17.786;2023-06-22T20:13:33;18.30;;;10.73;;
42414;SDS011;28058;46.344;17.786;2023-06-22T20:17:03;15.30;;;10.65;;
42414;SDS011;28058;46.344;17.786;2023-06-22T20:20:31;16.98;;;9.90;;
42414;SDS011;28058;46.344;17.786;2023-06-22T20:24:05;16.63;;;10.25;;
42414;SDS011;28058;46.344;17.786;2023-06-22T20:27:30;16.15;;;9.57;;
42414;SDS011;28058;46.344;17.786;2023-06-22T20:34:34;18.40;;;9.90;;
42414;SDS011;28058;46.344;17.786;2023-06-22T20:38:01;22.45;;;10.52;;
42414;SDS011;28058;46.344;17.786;2023-06-22T20:41:26;15.85;;;10.50;;
42414;SDS011;28058;46.344;17.786;2023-06-22T20:44:52;16.13;;;10.32;;
42414;SDS011;28058;46.344;17.786;2023-06-22T20:48:21;18.60;;;10.60;;
42414;SDS011;28058;46.344;17.786;2023-06-22T20:51:46;13.88;;;10.15;;
42414;SDS011;28058;46.344;17.786;2023-06-22T20:55:13;16.08;;;10.23;;
42414;SDS011;28058;46.344;17.786;2023-06-22T20:58:39;14.18;;;10.27;;
42414;SDS011;28058;46.344;17.786;2023-06-22T21:02:04;15.02;;;10.48;;
42414;SDS011;28058;46.344;17.786;2023-06-22T21:05:31;16.35;;;10.48;;
42414;SDS011;28058;46.344;17.786;2023-06-22T21:08:56;15.38;;;10.52;;
42414;SDS011;28058;46.344;17.786;2023-06-22T21:12:22;14.85;;;10.38;;
42414;SDS011;28058;46.344;17.786;2023-06-22T21:15:48;18.65;;;11.10;;
42414;SDS011;28058;46.344;17.786;2023-06-22T21:19:14;14.52;;;10.40;;
42414;SDS011;28058;46.344;17.786;2023-06-22T21:22:39;16.20;;;10.88;;
42414;SDS011;28058;46.344;17.786;2023-06-22T21:26:05;25.67;;;11.45;;
42414;SDS011;28058;46.344;17.786;2023-06-22T21:29:30;16.10;;;12.00;;
42414;SDS011;28058;46.344;17.786;2023-06-22T21:32:56;13.73;;;11.25;;
42414;SDS011;28058;46.344;17.786;2023-06-22T21:36:21;18.98;;;12.63;;
42414;SDS011;28058;46.344;17.786;2023-06-22T21:39:47;19.40;;;12.20;;
42414;SDS011;28058;46.344;17.786;2023-06-22T21:43:14;18.27;;;12.75;;
42414;SDS011;28058;46.344;17.786;2023-06-22T21:46:39;20.48;;;11.90;;
42414;SDS011;28058;46.344;17.786;2023-06-22T21:50:05;17.50;;;13.23;;
42414;SDS011;28058;46.344;17.786;2023-06-22T21:53:31;18.52;;;12.93;;
42414;SDS011;28058;46.344;17.786;2023-06-22T21:56:56;16.42;;;12.90;;
42414;SDS011;28058;46.344;17.786;2023-06-22T22:00:22;17.42;;;14.15;;
42414;SDS011;28058;46.344;17.786;2023-06-22T22:03:47;18.92;;;13.13;;
42414;SDS011;28058;46.344;17.786;2023-06-22T22:07:12;16.90;;;13.82;;
42414;SDS011;28058;46.344;17.786;2023-06-22T22:10:38;17.65;;;13.50;;
42414;SDS011;28058;46.344;17.786;2023-06-22T22:14:03;17.20;;;13.25;;
42414;SDS011;28058;46.344;17.786;2023-06-22T22:17:32;18.75;;;13.45;;
42414;SDS011;28058;46.344;17.786;2023-06-22T22:20:58;20.95;;;13.38;;
42414;SDS011;28058;46.344;17.786;2023-06-22T22:24:23;16.95;;;13.68;;
42414;SDS011;28058;46.344;17.786;2023-06-22T22:27:53;19.23;;;13.65;;
42414;SDS011;28058;46.344;17.786;2023-06-22T22:31:18;21.52;;;14.63;;
42414;SDS011;28058;46.344;17.786;2023-06-22T22:34:43;23.75;;;14.15;;
42414;SDS011;28058;46.344;17.786;2023-06-22T22:38:09;18.55;;;13.77;;
42414;SDS011;28058;46.344;17.786;2023-06-22T22:41:37;16.17;;;13.45;;
42414;SDS011;28058;46.344;17.786;2023-06-22T22:45:03;18.83;;;15.02;;
42414;SDS011;28058;46.344;17.786;2023-06-22T22:48:29;16.00;;;13.77;;
42414;SDS011;28058;46.344;17.786;2023-06-22T22:51:55;16.75;;;13.07;;
42414;SDS011;28058;46.344;17.786;2023-06-22T22:55:20;21.60;;;13.45;;
42414;SDS011;28058;46.344;17.786;2023-06-22T22:58:50;16.85;;;12.70;;
42414;SDS011;28058;46.344;17.786;2023-06-22T23:02:15;24.50;;;13.05;;
42414;SDS011;28058;46.344;17.786;2023-06-22T23:05:41;17.38;;;13.00;;
42414;SDS011;28058;46.344;17.786;2023-06-22T23:09:06;18.35;;;12.70;;
42414;SDS011;28058;46.344;17.786;2023-06-22T23:12:32;20.60;;;12.23;;
42414;SDS011;28058;46.344;17.786;2023-06-22T23:15:59;16.42;;;12.13;;
42414;SDS011;28058;46.344;17.786;2023-06-22T23:19:24;17.52;;;13.15;;